Terminal Aerodrome Forecast
Issued by NWS

Home | Current Version | Previous Version | Graphics & Text | Print | Product List | Glossary On
Versions: 1 2 3 4 5 6 7 8 9 10 11 12 13
000
FTUS43 KPAH 241100
TAFCGI
TAF
KCGI 241120Z 2412/2512 13006KT P6SM BKN250
     FM241600 17012G22KT P6SM SCT045 SCT120
     FM242300 18014G22KT P6SM VCTS BKN040CB OVC100
      TEMPO 2500/2504 3SM -TSRA BR OVC025CB
     FM250400 29010KT P6SM VCSH BKN007 OVC050=

USA.gov is the U.S. government's official web portal to all federal, state and local government web resources and services.